Time;durP1;ratioP1;P1;durP2;ratioP2;P2;SDS_P1;SDS_P2;PMS_P1;PMS_P2;Temp;Humidity;BMP_temperature;BMP_pressure;BME280_temperature;BME280_humidity;BME280_pressure;Samples;Min_cycle;Max_cycle;Signal;HPM_P1;HPM_P2
2022/09/10 00:00:05;;;;;;;0.30;0.20;;;13.70;99.90;;;;;;5073413;28;20558;-81
2022/09/10 00:02:32;;;;;;;0.30;0.30;;;13.70;99.90;;;;;;5073376;28;20469;-81
2022/09/10 00:05:01;;;;;;;0.30;0.30;;;13.70;99.90;;;;;;5072917;28;20850;-81
2022/09/10 00:07:30;;;;;;;0.30;0.23;;;13.60;99.90;;;;;;5073528;28;20847;-81
2022/09/10 00:09:57;;;;;;;0.30;0.30;;;13.60;99.90;;;;;;5073180;28;20452;-81
2022/09/10 00:12:23;;;;;;;0.40;0.30;;;13.60;99.90;;;;;;5073149;28;20468;-81
2022/09/10 00:14:53;;;;;;;0.40;0.30;;;13.70;99.90;;;;;;5072887;28;20940;-81
2022/09/10 00:17:20;;;;;;;0.30;0.20;;;13.70;99.90;;;;;;5072902;28;20437;-81
2022/09/10 00:19:46;;;;;;;0.30;0.20;;;13.70;99.90;;;;;;5072924;28;20815;-81
2022/09/10 00:22:13;;;;;;;0.40;0.30;;;13.60;99.90;;;;;;5073068;28;20461;-81
2022/09/10 00:24:40;;;;;;;0.30;0.30;;;13.70;99.90;;;;;;5072669;28;20472;-81
2022/09/10 00:27:08;;;;;;;0.30;0.20;;;13.70;99.90;;;;;;5072733;28;20491;-81
2022/09/10 00:29:34;;;;;;;0.50;0.37;;;13.70;99.90;;;;;;5073027;28;20452;-81
2022/09/10 00:32:03;;;;;;;0.40;0.30;;;13.70;99.90;;;;;;5072952;28;20456;-81
2022/09/10 00:34:30;;;;;;;0.40;0.30;;;13.80;99.90;;;;;;5072857;28;20437;-81
2022/09/10 00:36:58;;;;;;;0.30;0.20;;;13.80;99.90;;;;;;5072621;28;20944;-81
2022/09/10 00:39:24;;;;;;;0.40;0.33;;;13.80;99.90;;;;;;5072805;28;20441;-81
2022/09/10 00:41:54;;;;;;;0.30;0.30;;;13.80;99.90;;;;;;5072979;28;20448;-81
2022/09/10 00:44:57;;;;;;;0.30;0.30;;;13.70;99.90;;;;;;5072767;28;20486;-81
2022/09/10 00:47:28;;;;;;;0.33;0.30;;;13.70;99.90;;;;;;5073486;28;20821;-81
2022/09/10 00:50:00;;;;;;;0.30;0.20;;;13.70;99.90;;;;;;5076705;28;20409;-81
2022/09/10 00:52:28;;;;;;;0.30;0.30;;;13.80;99.90;;;;;;5076507;28;20468;-81
2022/09/10 00:54:56;;;;;;;0.40;0.30;;;13.80;99.90;;;;;;5076187;28;20502;-81
2022/09/10 00:57:23;;;;;;;0.30;0.20;;;13.80;99.90;;;;;;5076402;28;20436;-81
2022/09/10 00:59:54;;;;;;;0.40;0.30;;;13.90;99.90;;;;;;5076220;28;20955;-81
2022/09/10 01:02:21;;;;;;;0.40;0.30;;;13.90;99.90;;;;;;5075986;28;21054;-81
2022/09/10 01:04:50;;;;;;;0.40;0.30;;;13.90;99.90;;;;;;5076134;28;20511;-81
2022/09/10 01:07:17;;;;;;;0.33;0.30;;;13.90;99.90;;;;;;5076249;28;20444;-81
2022/09/10 01:09:44;;;;;;;0.30;0.20;;;14.00;99.90;;;;;;5076266;28;20453;-81
2022/09/10 01:12:24;;;;;;;0.30;0.20;;;14.00;99.90;;;;;;5075857;28;20449;-81
2022/09/10 01:15:14;;;;;;;0.30;0.30;;;14.00;99.90;;;;;;5076252;28;20428;-81
2022/09/10 01:17:53;;;;;;;0.30;0.30;;;14.00;99.90;;;;;;5076210;28;20437;-81
2022/09/10 01:20:41;;;;;;;0.30;0.30;;;14.00;99.90;;;;;;5076090;28;20807;-81
2022/09/10 01:23:36;;;;;;;0.30;0.20;;;14.00;99.90;;;;;;5075707;28;20465;-81
2022/09/10 01:26:12;;;;;;;0.50;0.50;;;14.10;99.90;;;;;;5075723;28;20983;-81
2022/09/10 01:28:47;;;;;;;0.30;0.20;;;14.10;99.90;;;;;;5075939;28;20445;-81
2022/09/10 01:31:20;;;;;;;0.30;0.20;;;14.10;99.90;;;;;;5075914;28;20433;-81
2022/09/10 01:33:55;;;;;;;0.33;0.23;;;14.00;99.90;;;;;;5075493;28;20839;-81
2022/09/10 01:36:28;;;;;;;0.30;0.30;;;14.00;99.90;;;;;;5075484;28;20916;-80
2022/09/10 01:38:56;;;;;;;0.40;0.30;;;13.90;99.90;;;;;;5075647;28;20425;-80
2022/09/10 01:41:24;;;;;;;0.40;0.30;;;13.80;99.90;;;;;;5075608;28;20445;-80
2022/09/10 01:43:52;;;;;;;10.43;0.60;;;13.80;99.90;;;;;;5075546;28;20457;-80
2022/09/10 01:46:31;;;;;;;0.30;0.30;;;13.80;99.90;;;;;;5075416;28;20488;-80
2022/09/10 01:49:12;;;;;;;0.40;0.30;;;13.80;99.90;;;;;;5075636;28;20454;-80
2022/09/10 01:51:55;;;;;;;0.40;0.33;;;13.80;99.90;;;;;;5075551;28;20447;-80
2022/09/10 01:54:38;;;;;;;0.40;0.30;;;13.80;99.90;;;;;;5075441;28;20436;-81
2022/09/10 01:57:12;;;;;;;0.40;0.33;;;13.70;99.90;;;;;;5075450;28;20432;-81
2022/09/10 01:59:45;;;;;;;0.30;0.23;;;13.70;99.90;;;;;;5074033;28;20908;-80
2022/09/10 02:02:16;;;;;;;0.47;0.30;;;13.70;99.90;;;;;;5075191;28;20530;-80
2022/09/10 02:04:44;;;;;;;0.37;0.30;;;13.80;99.90;;;;;;5075351;28;20526;-80
2022/09/10 02:07:14;;;;;;;0.30;0.30;;;13.80;99.90;;;;;;5075162;28;20456;-80
2022/09/10 02:09:41;;;;;;;0.93;0.40;;;13.80;99.90;;;;;;5074965;28;20445;-80
2022/09/10 02:12:17;;;;;;;0.50;0.30;;;13.90;99.90;;;;;;5074680;28;20464;-80
2022/09/10 02:14:48;;;;;;;0.30;0.30;;;13.80;99.90;;;;;;5075266;28;20519;-80
2022/09/10 02:17:16;;;;;;;0.40;0.30;;;13.80;99.90;;;;;;5074721;28;20773;-80
2022/09/10 02:19:45;;;;;;;0.30;0.30;;;13.70;99.90;;;;;;5074807;28;20453;-80
2022/09/10 02:22:14;;;;;;;2.47;0.30;;;13.70;99.90;;;;;;5074703;28;20476;-80
2022/09/10 02:24:41;;;;;;;0.40;0.40;;;13.70;99.90;;;;;;5074489;28;20449;-80
2022/09/10 02:27:07;;;;;;;0.30;0.20;;;13.60;99.90;;;;;;5074377;28;20480;-80
2022/09/10 02:29:34;;;;;;;0.40;0.30;;;13.60;99.90;;;;;;5074920;28;20436;-80
2022/09/10 02:32:03;;;;;;;0.40;0.40;;;13.60;99.90;;;;;;5074519;28;20452;-80
2022/09/10 02:34:29;;;;;;;0.30;0.30;;;13.60;99.90;;;;;;5074602;28;20452;-80
2022/09/10 02:36:56;;;;;;;0.40;0.30;;;13.70;99.90;;;;;;5074554;28;20451;-80
2022/09/10 02:39:24;;;;;;;0.40;0.33;;;13.70;99.90;;;;;;5074193;28;20859;-80
2022/09/10 02:41:51;;;;;;;0.40;0.30;;;13.60;99.90;;;;;;5074312;28;20448;-80
2022/09/10 02:44:17;;;;;;;0.30;0.20;;;13.50;99.90;;;;;;5074384;28;20449;-80
2022/09/10 02:46:44;;;;;;;0.30;0.30;;;13.60;99.90;;;;;;5074043;28;20457;-80
2022/09/10 02:49:12;;;;;;;0.30;0.30;;;13.60;99.90;;;;;;5074001;28;20441;-79
2022/09/10 02:51:40;;;;;;;0.40;0.30;;;13.60;99.90;;;;;;5074192;28;20452;-80
2022/09/10 02:54:07;;;;;;;0.30;0.30;;;13.60;99.90;;;;;;5074068;28;20500;-80
2022/09/10 02:56:34;;;;;;;0.40;0.30;;;13.60;99.90;;;;;;5074140;28;20445;-79
2022/09/10 02:59:01;;;;;;;0.30;0.20;;;13.50;99.90;;;;;;5074132;28;20449;-79
2022/09/10 03:01:27;;;;;;;0.40;0.30;;;13.50;99.90;;;;;;5074126;28;20472;-79
2022/09/10 03:03:57;;;;;;;0.40;0.30;;;13.50;99.90;;;;;;5073929;28;20453;-79
2022/09/10 03:06:26;;;;;;;0.97;0.83;;;13.50;99.90;;;;;;5073924;28;20476;-79
2022/09/10 03:08:54;;;;;;;0.30;0.30;;;13.50;99.90;;;;;;5073997;28;20559;-79
2022/09/10 03:11:22;;;;;;;0.40;0.30;;;13.50;99.90;;;;;;5074286;28;20481;-79
2022/09/10 03:13:50;;;;;;;0.30;0.30;;;13.50;99.90;;;;;;5073714;28;20964;-79
2022/09/10 03:16:18;;;;;;;0.30;0.30;;;13.50;99.90;;;;;;5073713;28;20449;-79
2022/09/10 03:18:45;;;;;;;2.57;0.30;;;13.50;99.90;;;;;;5073689;28;20448;-78
2022/09/10 03:21:14;;;;;;;0.30;0.30;;;13.60;99.90;;;;;;5073451;28;20440;-79
2022/09/10 03:23:43;;;;;;;0.30;0.30;;;13.60;99.90;;;;;;5073569;28;21038;-79
2022/09/10 03:26:10;;;;;;;0.40;0.30;;;13.70;99.90;;;;;;5073078;28;20561;-79
2022/09/10 03:28:37;;;;;;;0.40;0.40;;;13.70;99.90;;;;;;5073227;28;20456;-79
2022/09/10 03:31:04;;;;;;;1.60;0.40;;;13.60;99.90;;;;;;5073513;28;20452;-79
2022/09/10 03:33:31;;;;;;;0.50;0.30;;;13.60;99.90;;;;;;5073124;28;20972;-79
2022/09/10 03:35:59;;;;;;;0.30;0.30;;;13.50;99.90;;;;;;5073231;28;20437;-79
2022/09/10 03:38:26;;;;;;;0.40;0.40;;;13.50;99.90;;;;;;5073123;28;20539;-79
2022/09/10 03:40:54;;;;;;;0.47;0.40;;;13.50;99.90;;;;;;5073293;28;20453;-79
2022/09/10 03:43:22;;;;;;;0.30;0.30;;;13.50;99.90;;;;;;5073424;28;20511;-80
2022/09/10 03:45:49;;;;;;;0.40;0.30;;;13.50;99.90;;;;;;5073251;28;20484;-80
2022/09/10 03:48:16;;;;;;;7.10;0.70;;;13.40;99.90;;;;;;5073424;28;20451;-80
2022/09/10 03:50:43;;;;;;;0.70;0.30;;;13.40;99.90;;;;;;5073111;28;21009;-80
2022/09/10 03:53:10;;;;;;;0.40;0.40;;;13.40;99.90;;;;;;5073212;28;20523;-80
2022/09/10 03:55:37;;;;;;;0.57;0.27;;;13.40;99.90;;;;;;5072962;28;20444;-80
2022/09/10 03:58:06;;;;;;;0.40;0.40;;;13.40;99.90;;;;;;5073208;28;20453;-81
2022/09/10 04:00:33;;;;;;;0.40;0.30;;;13.40;99.90;;;;;;5073033;28;20488;-81
2022/09/10 04:03:00;;;;;;;0.30;0.30;;;13.30;99.90;;;;;;5073097;28;20519;-81
2022/09/10 04:05:27;;;;;;;0.30;0.20;;;13.30;99.90;;;;;;5073201;28;20472;-81
2022/09/10 04:07:55;;;;;;;0.40;0.30;;;13.30;99.90;;;;;;5072929;28;20924;-81
2022/09/10 04:10:22;;;;;;;0.33;0.30;;;13.30;99.90;;;;;;5073070;28;20479;-81
2022/09/10 04:12:49;;;;;;;0.30;0.30;;;13.30;99.90;;;;;;5073000;28;20461;-81
2022/09/10 04:15:17;;;;;;;0.50;0.30;;;13.30;99.90;;;;;;5072815;28;20932;-81
2022/09/10 04:17:44;;;;;;;0.70;0.30;;;13.30;99.90;;;;;;5073080;28;20445;-82
2022/09/10 04:20:11;;;;;;;0.30;0.20;;;13.30;99.90;;;;;;5073096;28;20481;-82
2022/09/10 04:22:38;;;;;;;0.50;0.30;;;13.30;99.90;;;;;;5074300;28;20468;-82
2022/09/10 04:25:05;;;;;;;0.30;0.30;;;13.30;99.90;;;;;;5076944;28;20449;-81
2022/09/10 04:27:32;;;;;;;0.30;0.30;;;13.20;99.90;;;;;;5076801;28;20485;-81
2022/09/10 04:29:59;;;;;;;0.30;0.30;;;13.30;99.90;;;;;;5076720;28;20445;-82
2022/09/10 04:32:27;;;;;;;0.30;0.30;;;13.30;99.90;;;;;;5077012;28;20468;-82
2022/09/10 04:34:54;;;;;;;0.30;0.23;;;13.30;99.90;;;;;;5076654;28;20436;-82
2022/09/10 04:37:20;;;;;;;0.40;0.30;;;13.30;99.90;;;;;;5076865;28;20445;-82
2022/09/10 04:39:47;;;;;;;0.30;0.20;;;13.30;99.90;;;;;;5076511;28;20448;-81
2022/09/10 04:42:19;;;;;;;0.83;0.30;;;13.30;99.90;;;;;;5076639;28;20486;-82
2022/09/10 04:44:45;;;;;;;0.30;0.30;;;13.40;99.90;;;;;;5076717;28;20437;-82
2022/09/10 04:47:12;;;;;;;0.30;0.30;;;13.30;99.90;;;;;;5076265;28;20481;-82
2022/09/10 04:49:41;;;;;;;0.30;0.20;;;13.20;99.90;;;;;;5076564;28;20451;-82
2022/09/10 04:52:08;;;;;;;0.40;0.30;;;13.30;99.90;;;;;;5076095;28;20980;-82
2022/09/10 04:54:36;;;;;;;0.30;0.30;;;13.30;99.90;;;;;;5076488;28;20448;-82
2022/09/10 04:57:03;;;;;;;0.40;0.30;;;13.30;99.90;;;;;;5076213;28;20485;-82
2022/09/10 04:59:30;;;;;;;0.40;0.30;;;13.40;99.90;;;;;;5076159;28;20433;-82
2022/09/10 05:01:57;;;;;;;0.30;0.20;;;13.40;99.90;;;;;;5076169;28;20548;-81
2022/09/10 05:04:24;;;;;;;0.30;0.30;;;13.40;99.90;;;;;;5075982;28;20952;-82
2022/09/10 05:06:52;;;;;;;0.30;0.30;;;13.40;99.90;;;;;;5075873;28;20477;-82
2022/09/10 05:09:19;;;;;;;0.30;0.30;;;13.40;99.90;;;;;;5076191;28;20437;-82
2022/09/10 05:11:47;;;;;;;0.30;0.20;;;13.40;99.90;;;;;;5075909;28;20433;-81
2022/09/10 05:14:14;;;;;;;0.30;0.30;;;13.50;99.90;;;;;;5075851;28;20440;-81
2022/09/10 05:16:42;;;;;;;0.40;0.30;;;13.50;99.90;;;;;;5075751;28;20443;-81
2022/09/10 05:19:16;;;;;;;0.50;0.37;;;13.40;99.90;;;;;;5076031;28;20453;-81
2022/09/10 05:21:43;;;;;;;0.30;0.20;;;13.40;99.90;;;;;;5075780;28;20485;-81
2022/09/10 05:24:11;;;;;;;0.40;0.40;;;13.50;99.90;;;;;;5075619;28;20457;-81
2022/09/10 05:26:38;;;;;;;0.30;0.30;;;13.60;99.90;;;;;;5075612;28;20496;-80
2022/09/10 05:29:06;;;;;;;0.40;0.30;;;13.60;99.90;;;;;;5075903;28;20570;-81
2022/09/10 05:31:34;;;;;;;0.30;0.27;;;13.60;99.90;;;;;;5075845;28;20454;-80
2022/09/10 05:34:01;;;;;;;0.30;0.20;;;13.70;99.90;;;;;;5075609;28;20469;-81
2022/09/10 05:36:27;;;;;;;0.40;0.30;;;13.70;99.90;;;;;;5075521;28;20444;-79
2022/09/10 05:38:54;;;;;;;1.40;0.40;;;13.70;99.90;;;;;;5079719;28;20452;-78
2022/09/10 05:41:23;;;;;;;0.40;0.40;;;13.80;99.90;;;;;;5075860;28;20453;-78
2022/09/10 05:43:50;;;;;;;0.40;0.30;;;13.80;99.90;;;;;;5075343;28;21031;-78
2022/09/10 05:46:17;;;;;;;0.50;0.37;;;13.80;99.90;;;;;;5075335;28;20483;-77
2022/09/10 05:48:43;;;;;;;0.30;0.30;;;13.80;99.90;;;;;;5075616;28;20437;-78
2022/09/10 05:51:10;;;;;;;0.30;0.30;;;13.80;99.90;;;;;;5075485;28;20459;-77
2022/09/10 05:53:37;;;;;;;0.30;0.30;;;13.80;99.90;;;;;;5075423;28;20983;-77
2022/09/10 05:56:06;;;;;;;0.30;0.20;;;13.70;99.90;;;;;;5075596;28;20448;-77
2022/09/10 05:58:34;;;;;;;0.40;0.40;;;13.70;99.90;;;;;;5075439;28;20498;-77
2022/09/10 06:01:01;;;;;;;0.87;0.30;;;13.80;99.90;;;;;;5075251;28;20453;-77
2022/09/10 06:03:28;;;;;;;0.30;0.30;;;13.70;99.90;;;;;;5074846;28;20469;-77
2022/09/10 06:05:55;;;;;;;0.73;0.73;;;13.80;99.90;;;;;;5075123;28;20455;-77
2022/09/10 06:08:22;;;;;;;0.37;0.27;;;13.90;99.90;;;;;;5075115;28;20453;-77
2022/09/10 06:11:00;;;;;;;0.40;0.30;;;13.90;99.90;;;;;;5075290;28;20445;-77
2022/09/10 06:13:28;;;;;;;0.30;0.30;;;13.80;99.90;;;;;;5074727;28;20468;-77
2022/09/10 06:15:56;;;;;;;0.50;0.30;;;13.90;99.90;;;;;;5075061;28;20472;-77
2022/09/10 06:18:23;;;;;;;0.30;0.20;;;13.90;99.90;;;;;;5075148;28;20459;-77
2022/09/10 06:20:49;;;;;;;0.30;0.30;;;14.00;99.90;;;;;;5074660;28;20433;-77
2022/09/10 06:23:17;;;;;;;0.40;0.30;;;14.00;99.90;;;;;;5074612;28;20453;-77
2022/09/10 06:25:44;;;;;;;0.30;0.30;;;14.00;99.90;;;;;;5074494;28;20445;-77
2022/09/10 06:28:13;;;;;;;0.30;0.27;;;14.10;99.90;;;;;;5074580;28;20575;-77
2022/09/10 06:30:39;;;;;;;0.30;0.30;;;14.10;99.90;;;;;;5074655;28;20459;-77
2022/09/10 06:33:07;;;;;;;0.37;0.30;;;14.00;99.90;;;;;;5074631;28;20468;-77
2022/09/10 06:35:35;;;;;;;0.40;0.40;;;14.10;99.90;;;;;;5074657;28;20831;-77
2022/09/10 06:38:02;;;;;;;0.97;0.43;;;14.10;99.90;;;;;;5074522;28;20527;-82
2022/09/10 06:40:29;;;;;;;0.30;0.20;;;14.00;99.90;;;;;;5074934;28;20445;-84
2022/09/10 06:42:56;;;;;;;0.40;0.40;;;14.00;99.90;;;;;;5074463;28;20469;-83
2022/09/10 06:45:23;;;;;;;0.37;0.30;;;14.10;99.90;;;;;;5073685;28;20862;-84
2022/09/10 06:47:51;;;;;;;0.30;0.30;;;14.10;99.90;;;;;;5074403;28;20477;-87
2022/09/10 06:50:19;;;;;;;0.40;0.30;;;14.10;99.90;;;;;;5074468;28;20506;-86
2022/09/10 06:52:47;;;;;;;0.40;0.30;;;14.20;99.90;;;;;;5074159;28;20460;-87
2022/09/10 06:55:14;;;;;;;1.47;0.40;;;14.20;99.90;;;;;;5074375;28;20532;-87
2022/09/10 06:57:41;;;;;;;0.30;0.30;;;14.30;99.90;;;;;;5073937;28;20437;-83
2022/09/10 07:00:08;;;;;;;0.40;0.27;;;14.30;99.90;;;;;;5074596;28;20626;-85
2022/09/10 07:02:35;;;;;;;0.30;0.30;;;14.30;99.90;;;;;;5074142;28;20475;-84
2022/09/10 07:05:02;;;;;;;0.30;0.30;;;14.40;99.90;;;;;;5074420;28;20543;-87
2022/09/10 07:07:30;;;;;;;0.30;0.20;;;14.30;99.90;;;;;;5074656;28;20480;-85
2022/09/10 07:09:57;;;;;;;0.30;0.30;;;14.50;99.90;;;;;;5074539;28;20448;-89
2022/09/10 07:12:24;;;;;;;0.30;0.20;;;14.70;99.90;;;;;;5074317;28;20464;-90
2022/09/10 07:14:51;;;;;;;0.30;0.20;;;14.90;99.90;;;;;;5074465;28;20444;-90
2022/09/10 07:17:19;;;;;;;0.40;0.30;;;15.20;99.90;;;;;;5074336;28;20451;-87
2022/09/10 07:19:46;;;;;;;0.97;0.33;;;15.50;99.90;;;;;;5073845;28;20437;-85
2022/09/10 07:22:12;;;;;;;0.40;0.30;;;15.70;99.90;;;;;;5073898;28;20468;-85
2022/09/10 07:24:40;;;;;;;0.40;0.30;;;15.70;99.90;;;;;;5074368;28;20440;-86
2022/09/10 07:27:09;;;;;;;0.30;0.30;;;15.60;99.90;;;;;;5073467;28;21015;-86
2022/09/10 07:29:36;;;;;;;0.40;0.30;;;15.60;99.90;;;;;;5073733;28;20952;-86
2022/09/10 07:32:04;;;;;;;0.40;0.40;;;15.50;99.90;;;;;;5073797;28;20456;-86
2022/09/10 07:34:30;;;;;;;0.30;0.30;;;15.60;99.90;;;;;;5074083;28;20498;-86
2022/09/10 07:36:57;;;;;;;0.30;0.30;;;15.60;99.90;;;;;;5074304;28;20441;-86
2022/09/10 07:39:24;;;;;;;0.30;0.30;;;15.60;99.90;;;;;;5073631;28;20925;-86
2022/09/10 07:41:52;;;;;;;0.30;0.30;;;15.60;99.90;;;;;;5073915;28;20476;-86
2022/09/10 07:44:19;;;;;;;0.40;0.30;;;15.70;99.90;;;;;;5074278;28;20455;-86
2022/09/10 07:46:46;;;;;;;0.40;0.30;;;15.80;99.90;;;;;;5074175;28;20477;-86
2022/09/10 07:49:14;;;;;;;0.40;0.30;;;16.00;99.90;;;;;;5073842;28;20494;-86
2022/09/10 07:51:41;;;;;;;0.30;0.30;;;16.10;99.90;;;;;;5073726;28;20491;-86
2022/09/10 07:54:08;;;;;;;0.30;0.30;;;16.10;99.90;;;;;;5073361;28;20461;-85
2022/09/10 07:56:36;;;;;;;0.40;0.30;;;16.30;99.90;;;;;;5073104;28;20815;-85
2022/09/10 07:59:04;;;;;;;0.30;0.30;;;16.30;99.90;;;;;;5073431;28;20445;-87
2022/09/10 08:01:31;;;;;;;0.40;0.30;;;16.40;99.90;;;;;;5073532;28;20456;-84
2022/09/10 08:03:58;;;;;;;0.30;0.30;;;16.60;99.90;;;;;;5073227;28;20453;-81
2022/09/10 08:06:25;;;;;;;0.40;0.30;;;16.70;99.90;;;;;;5074201;28;20457;-81
2022/09/10 08:08:52;;;;;;;1.53;0.30;;;16.90;99.90;;;;;;5073269;28;20445;-81
2022/09/10 08:11:21;;;;;;;0.50;0.30;;;16.90;99.90;;;;;;5073069;28;20453;-85
2022/09/10 08:13:49;;;;;;;0.30;0.30;;;17.10;99.90;;;;;;5073500;28;20831;-85
2022/09/10 08:16:19;;;;;;;0.40;0.33;;;17.30;99.90;;;;;;5073324;28;20812;-86
2022/09/10 08:18:46;;;;;;;0.40;0.30;;;17.20;99.90;;;;;;5076672;28;20414;-85
2022/09/10 08:21:14;;;;;;;0.40;0.30;;;17.30;99.90;;;;;;5073361;28;20440;-86
2022/09/10 08:23:42;;;;;;;0.40;0.30;;;17.40;99.90;;;;;;5073353;28;20457;-86
2022/09/10 08:26:09;;;;;;;0.30;0.30;;;17.60;99.90;;;;;;5073701;28;20971;-85
2022/09/10 08:28:36;;;;;;;0.30;0.30;;;17.60;99.90;;;;;;5073186;28;20818;-85
2022/09/10 08:31:06;;;;;;;0.40;0.30;;;17.70;99.90;;;;;;5073359;28;20812;-87
2022/09/10 08:33:34;;;;;;;0.30;0.30;;;17.70;99.90;;;;;;5073107;28;20515;-86
2022/09/10 08:36:03;;;;;;;0.30;0.30;;;17.70;99.90;;;;;;5073601;28;20471;-87
2022/09/10 08:38:32;;;;;;;0.37;0.27;;;17.80;99.90;;;;;;5073448;28;20448;-87
2022/09/10 08:41:00;;;;;;;0.50;0.30;;;18.00;99.90;;;;;;5073227;28;20433;-87
2022/09/10 08:43:33;;;;;;;0.40;0.33;;;18.20;99.90;;;;;;5073400;28;20477;-86
2022/09/10 08:46:02;;;;;;;0.40;0.37;;;18.20;99.90;;;;;;5073261;28;20440;-86
2022/09/10 08:48:34;;;;;;;0.73;0.60;;;18.20;99.90;;;;;;5073787;28;20469;-87
2022/09/10 08:51:09;;;;;;;0.50;0.50;;;18.20;99.90;;;;;;5073149;28;20907;-86
2022/09/10 08:53:46;;;;;;;0.40;0.30;;;18.20;99.90;;;;;;5072922;28;20468;-82
2022/09/10 08:56:16;;;;;;;0.40;0.30;;;18.20;99.90;;;;;;5072594;28;20936;-84
2022/09/10 08:58:45;;;;;;;0.37;0.30;;;18.30;99.90;;;;;;5072536;28;20975;-84
2022/09/10 09:01:21;;;;;;;0.40;0.30;;;18.10;99.90;;;;;;5072698;28;20494;-85
2022/09/10 09:03:48;;;;;;;0.40;0.30;;;18.10;99.90;;;;;;5072801;28;20475;-83
2022/09/10 09:06:25;;;;;;;0.40;0.40;;;18.00;99.90;;;;;;5072431;28;20460;-83
2022/09/10 09:08:53;;;;;;;0.30;0.30;;;17.80;99.90;;;;;;5073948;28;20468;-84
2022/09/10 09:11:28;;;;;;;0.50;0.30;;;17.70;99.90;;;;;;5076621;28;20488;-88
2022/09/10 09:14:09;;;;;;;0.30;0.30;;;17.60;99.90;;;;;;5076952;28;20456;-89
2022/09/10 09:16:49;;;;;;;0.30;0.30;;;17.60;99.90;;;;;;5077056;28;20789;-89
2022/09/10 09:19:27;;;;;;;0.40;0.30;;;17.50;99.90;;;;;;5076915;28;20433;-88
2022/09/10 09:21:57;;;;;;;0.30;0.30;;;17.40;99.90;;;;;;5076712;28;20464;-89
2022/09/10 09:24:29;;;;;;;0.30;0.30;;;17.40;99.90;;;;;;5076723;28;20459;-89
2022/09/10 09:27:10;;;;;;;0.37;0.30;;;17.40;99.90;;;;;;5076187;28;20995;-87
2022/09/10 09:29:44;;;;;;;0.30;0.20;;;17.40;99.90;;;;;;5076313;28;20462;-89
2022/09/10 09:32:16;;;;;;;0.50;0.50;;;17.30;99.90;;;;;;5076512;28;20828;-88
2022/09/10 09:34:49;;;;;;;0.40;0.30;;;17.30;99.90;;;;;;5076811;28;20425;-89
2022/09/10 09:37:20;;;;;;;0.40;0.30;;;17.40;99.90;;;;;;5076195;28;20425;-88
2022/09/10 09:39:53;;;;;;;0.30;0.30;;;17.40;99.90;;;;;;5076602;28;20483;-89
2022/09/10 09:42:28;;;;;;;0.30;0.30;;;17.40;99.90;;;;;;5076397;28;20456;-89
2022/09/10 09:45:02;;;;;;;0.40;0.30;;;17.30;99.90;;;;;;5076551;28;20409;-89
2022/09/10 09:47:29;;;;;;;0.40;0.30;;;17.30;99.90;;;;;;5076603;28;20473;-89
2022/09/10 09:49:56;;;;;;;0.30;0.30;;;17.30;99.90;;;;;;5075922;28;20444;-88
2022/09/10 09:52:28;;;;;;;0.40;0.30;;;17.20;99.90;;;;;;5076306;28;20559;-89
2022/09/10 09:55:07;;;;;;;0.40;0.30;;;17.20;99.90;;;;;;5076141;28;20440;-89
2022/09/10 09:57:34;;;;;;;0.30;0.20;;;17.30;99.90;;;;;;5076117;28;20435;-89
2022/09/10 10:00:31;;;;;;;0.40;0.30;;;17.20;99.90;;;;;;5075952;28;20453;-88
2022/09/10 10:03:06;;;;;;;0.37;0.27;;;17.30;99.90;;;;;;5075903;28;20461;-88
2022/09/10 10:05:32;;;;;;;1.43;0.30;;;17.30;99.90;;;;;;5075912;28;20440;-90
2022/09/10 10:08:00;;;;;;;2.00;0.30;;;17.40;99.90;;;;;;5075959;28;20847;-89
2022/09/10 10:10:28;;;;;;;0.40;0.40;;;17.30;99.90;;;;;;5075687;28;20512;-90
2022/09/10 10:12:55;;;;;;;0.30;0.30;;;17.40;99.90;;;;;;5075792;28;20476;-89
2022/09/10 10:15:35;;;;;;;0.43;0.30;;;17.40;99.90;;;;;;5075793;28;20928;-88
2022/09/10 10:18:25;;;;;;;0.40;0.30;;;17.60;99.90;;;;;;5075648;28;20520;-89
2022/09/10 10:21:12;;;;;;;0.40;0.30;;;17.90;99.90;;;;;;5074870;28;20429;-89
2022/09/10 10:23:40;;;;;;;0.30;0.20;;;18.30;99.90;;;;;;5075558;28;20471;-89
2022/09/10 10:26:26;;;;;;;0.33;0.27;;;18.50;99.90;;;;;;5074981;28;20444;-89
2022/09/10 10:28:57;;;;;;;0.40;0.40;;;18.70;99.90;;;;;;5075447;28;20464;-89
2022/09/10 10:31:32;;;;;;;0.63;0.30;;;18.90;99.90;;;;;;5075427;28;20437;-90
2022/09/10 10:34:09;;;;;;;0.40;0.30;;;19.20;99.90;;;;;;5075357;28;20464;-89
2022/09/10 10:36:45;;;;;;;0.30;0.30;;;19.50;99.90;;;;;;5075380;28;20876;-89
2022/09/10 10:39:23;;;;;;;0.37;0.30;;;19.70;99.90;;;;;;5075891;28;20441;-89
2022/09/10 10:42:03;;;;;;;0.40;0.37;;;19.80;99.90;;;;;;5075184;28;20494;-89
2022/09/10 10:44:52;;;;;;;0.40;0.30;;;19.90;99.90;;;;;;5075028;28;20533;-89
2022/09/10 10:47:33;;;;;;;0.40;0.33;;;20.20;99.90;;;;;;5075261;28;20448;-89
2022/09/10 10:50:08;;;;;;;0.53;0.30;;;20.40;99.90;;;;;;5075047;28;20830;-87
2022/09/10 10:52:47;;;;;;;0.30;0.30;;;20.80;99.90;;;;;;5075326;28;20473;-89
2022/09/10 10:55:22;;;;;;;1.73;0.30;;;20.90;99.90;;;;;;5074962;28;20444;-89
2022/09/10 10:58:15;;;;;;;0.30;0.30;;;20.80;99.90;;;;;;5076027;28;20437;-90
2022/09/10 11:00:47;;;;;;;0.40;0.40;;;20.70;99.90;;;;;;5074917;28;20448;-89
2022/09/10 11:03:21;;;;;;;0.40;0.30;;;21.10;99.90;;;;;;5074818;28;20563;-89
2022/09/10 11:05:52;;;;;;;0.30;0.30;;;21.50;99.90;;;;;;5074976;28;20433;-89
2022/09/10 11:08:26;;;;;;;0.40;0.40;;;21.70;99.90;;;;;;5074584;28;20508;-88
2022/09/10 11:10:59;;;;;;;0.30;0.30;;;21.60;99.90;;;;;;5074642;28;20473;-88
2022/09/10 11:13:31;;;;;;;0.40;0.30;;;21.50;99.90;;;;;;5074417;28;21014;-89
2022/09/10 11:16:04;;;;;;;0.37;0.33;;;21.50;99.90;;;;;;5074704;28;20482;-89
2022/09/10 11:18:33;;;;;;;0.40;0.30;;;21.40;99.90;;;;;;5075698;28;20459;-90
2022/09/10 11:21:06;;;;;;;0.40;0.30;;;21.40;99.90;;;;;;5074470;28;20893;-90
2022/09/10 11:23:38;;;;;;;0.43;0.40;;;21.40;99.90;;;;;;5074584;28;20559;-90
2022/09/10 11:26:12;;;;;;;0.40;0.40;;;21.30;99.90;;;;;;5074671;28;20467;-89
2022/09/10 11:28:45;;;;;;;2.63;0.30;;;21.10;99.90;;;;;;5074484;28;20464;-87
2022/09/10 11:31:20;;;;;;;0.30;0.30;;;21.00;99.90;;;;;;5074286;28;20441;-90
2022/09/10 11:33:55;;;;;;;0.60;0.30;;;20.90;99.90;;;;;;5074199;28;20479;-87
2022/09/10 11:36:27;;;;;;;1.27;0.40;;;20.90;99.90;;;;;;5074198;28;20435;-89
2022/09/10 11:39:04;;;;;;;1.43;0.40;;;20.90;99.90;;;;;;5074126;28;20413;-89
2022/09/10 11:41:35;;;;;;;0.30;0.30;;;20.80;99.90;;;;;;5073575;28;20908;-87
2022/09/10 11:44:13;;;;;;;0.40;0.40;;;20.80;99.90;;;;;;5073779;28;20464;-86
2022/09/10 11:46:44;;;;;;;0.40;0.30;;;20.80;99.90;;;;;;5074167;28;20448;-90
2022/09/10 11:49:16;;;;;;;2.20;0.30;;;20.80;99.90;;;;;;5073559;28;20464;-89
2022/09/10 11:51:45;;;;;;;0.30;0.30;;;20.90;99.90;;;;;;5073773;28;20970;-89
2022/09/10 11:54:16;;;;;;;0.33;0.27;;;21.00;99.90;;;;;;5073930;28;20924;-89
2022/09/10 11:56:58;;;;;;;1.37;0.40;;;21.10;99.90;;;;;;5077827;28;20791;-77
2022/09/10 11:59:41;;;;;;;1.73;0.67;;;21.10;99.90;;;;;;5073431;28;20460;-77
2022/09/10 12:02:43;;;;;;;0.30;0.30;;;21.10;99.90;;;;;;5073421;28;20455;-77
2022/09/10 12:05:22;;;;;;;0.40;0.30;;;21.00;99.90;;;;;;5073098;28;20463;-77
2022/09/10 12:07:57;;;;;;;0.30;0.30;;;20.90;99.90;;;;;;5073047;28;20471;-77
2022/09/10 12:10:31;;;;;;;0.40;0.30;;;20.70;99.90;;;;;;5073313;28;20440;-77
2022/09/10 12:13:00;;;;;;;0.40;0.30;;;20.40;99.90;;;;;;5073509;28;20456;-77
2022/09/10 12:15:29;;;;;;;0.40;0.40;;;20.20;99.90;;;;;;5072999;28;20924;-77
2022/09/10 12:18:00;;;;;;;0.30;0.30;;;20.00;99.90;;;;;;5072919;28;20948;-77
2022/09/10 12:20:31;;;;;;;0.30;0.30;;;20.10;99.90;;;;;;5073010;28;20417;-77
2022/09/10 12:22:59;;;;;;;0.40;0.40;;;20.00;99.90;;;;;;5073121;28;20483;-77
2022/09/10 12:25:28;;;;;;;0.40;0.33;;;20.10;99.90;;;;;;5073359;28;20456;-77
2022/09/10 12:27:58;;;;;;;0.30;0.30;;;20.10;99.90;;;;;;5072891;28;20484;-77
2022/09/10 12:31:02;;;;;;;0.40;0.40;;;20.20;99.90;;;;;;5073069;28;20448;-77
2022/09/10 12:33:58;;;;;;;0.30;0.27;;;20.40;99.90;;;;;;5072807;28;20445;-78
2022/09/10 12:37:13;;;;;;;0.30;0.30;;;20.40;99.90;;;;;;5073048;28;20433;-77
2022/09/10 12:39:41;;;;;;;0.40;0.37;;;20.50;99.90;;;;;;5073051;28;20500;-77
2022/09/10 12:42:27;;;;;;;0.30;0.30;;;20.50;99.90;;;;;;5072614;28;21071;-77
2022/09/10 12:44:55;;;;;;;0.37;0.30;;;20.40;99.90;;;;;;5076365;28;20478;-77
2022/09/10 12:47:39;;;;;;;0.40;0.30;;;20.40;99.90;;;;;;5076744;28;20527;-77
2022/09/10 12:50:23;;;;;;;0.40;0.30;;;20.30;99.90;;;;;;5076410;28;20983;-77
2022/09/10 12:53:16;;;;;;;0.90;0.30;;;20.10;99.90;;;;;;5076647;28;20526;-77
2022/09/10 12:55:53;;;;;;;1.33;0.30;;;20.00;99.90;;;;;;5076332;28;20440;-78
2022/09/10 12:58:26;;;;;;;0.40;0.40;;;19.80;99.90;;;;;;5076641;28;20424;-78
2022/09/10 13:01:09;;;;;;;0.33;0.30;;;19.70;99.90;;;;;;5076218;28;20439;-78
2022/09/10 13:03:46;;;;;;;0.40;0.40;;;19.70;99.90;;;;;;5076476;28;20472;-78
2022/09/10 13:06:14;;;;;;;0.40;0.37;;;19.60;99.90;;;;;;5076160;28;20432;-78